To NAV CANADA Home Page Login to a new session Search on AWWS site Disclaimer Vers la page française équivalente Tips FAQ What's new on the site To the Forecasts and Observations / NOTAM section To "File a Flight Plan" website Publications and other links Update of the User's profile FIC Telephone Numbers My Weather Data Folder Route Weather Data Regional Weather Data Local Weather Data To the Forecasts and Observations / NOTAM section
Request Generated 10/19/2018 at 16:05:01 UTC . Weather information available at that time is displayed.

METAR/TAF

MAKKOVIK/NL    

METAR CYFT 191600Z 28016KT 12SM -SHSN BKN016 OVC120 M02/M06 A2970 RMK ST5AC3 SLP065=
SPECI CYFT 191526Z 27012G18KT 12SM -SHSN BKN016 OVC120 M02/M05 A2971 RMK ST5AC3 SLP066=
METAR CYFT 191500Z 28013KT 12SM BKN016 OVC120 M02/M05 A2971 RMK ST5AC3 SLP067=
SPECI CYFT 191433Z 29014KT 15SM BKN016 OVC120 M02/M05 A2971 RMK ST5AC3 SLP066=
METAR CYFT 191400Z 29012G18KT 15SM OVC016 M02/M04 A2970 RMK ST8 SLP064=

CYFT - No TAF is issued for this station

Your time UTC time
Weather data provided by Environment Canada and NAV CANADA